sensor_id;sensor_type;location;lat;lon;timestamp;pressure;altitude;pressure_sealevel;temperature;humidity
57668;BME280;43499;52.366;12.912;2023-03-15T00:00:47;100377.03;;;0.28;87.23
57668;BME280;43499;52.366;12.912;2023-03-15T00:01:48;100424.22;;;0.49;87.46
57668;BME280;43499;52.366;12.912;2023-03-15T00:02:49;100422.75;;;0.51;87.34
57668;BME280;43499;52.366;12.912;2023-03-15T00:03:50;100460.84;;;0.75;87.12
57668;BME280;43499;52.366;12.912;2023-03-15T00:04:51;100417.94;;;0.46;87.29
57668;BME280;43499;52.366;12.912;2023-03-15T00:05:54;100408.44;;;0.31;87.72
57668;BME280;43499;52.366;12.912;2023-03-15T00:06:55;100388.53;;;0.23;87.89
57668;BME280;43499;52.366;12.912;2023-03-15T00:07:57;100366.06;;;0.07;87.94
57668;BME280;43499;52.366;12.912;2023-03-15T00:08:59;100463.13;;;0.65;87.65
57668;BME280;43499;52.366;12.912;2023-03-15T00:10:01;100474.78;;;0.68;87.26
57668;BME280;43499;52.366;12.912;2023-03-15T00:11:04;100399.03;;;0.24;87.19
57668;BME280;43499;52.366;12.912;2023-03-15T00:12:05;100389.81;;;0.19;87.57
57668;BME280;43499;52.366;12.912;2023-03-15T00:13:07;100461.69;;;0.59;87.58
57668;BME280;43499;52.366;12.912;2023-03-15T00:14:09;100389.28;;;0.14;87.84
57668;BME280;43499;52.366;12.912;2023-03-15T00:15:12;100412.13;;;0.26;87.60
57668;BME280;43499;52.366;12.912;2023-03-15T00:16:14;100407.69;;;0.25;87.37
57668;BME280;43499;52.366;12.912;2023-03-15T00:17:18;100422.69;;;0.27;87.80
57668;BME280;43499;52.366;12.912;2023-03-15T00:18:19;100439.63;;;0.33;87.73
57668;BME280;43499;52.366;12.912;2023-03-15T00:19:20;100441.31;;;0.32;87.77
57668;BME280;43499;52.366;12.912;2023-03-15T00:20:21;100432.84;;;0.19;88.13
57668;BME280;43499;52.366;12.912;2023-03-15T00:21:22;100470.44;;;0.45;88.02
57668;BME280;43499;52.366;12.912;2023-03-15T00:22:23;100441.69;;;0.28;88.04
57668;BME280;43499;52.366;12.912;2023-03-15T00:23:24;100464.91;;;0.42;87.39
57668;BME280;43499;52.366;12.912;2023-03-15T00:24:25;100489.59;;;0.55;88.04
57668;BME280;43499;52.366;12.912;2023-03-15T00:25:27;100438.59;;;0.16;87.82
57668;BME280;43499;52.366;12.912;2023-03-15T00:26:28;100478.41;;;0.40;88.33
57668;BME280;43499;52.366;12.912;2023-03-15T00:27:29;100468.06;;;0.40;88.29
57668;BME280;43499;52.366;12.912;2023-03-15T00:28:37;100484.81;;;0.51;88.46
57668;BME280;43499;52.366;12.912;2023-03-15T00:29:38;100505.13;;;0.55;88.17
57668;BME280;43499;52.366;12.912;2023-03-15T00:30:40;100483.19;;;0.37;88.40
57668;BME280;43499;52.366;12.912;2023-03-15T00:31:41;100448.16;;;0.24;87.91
57668;BME280;43499;52.366;12.912;2023-03-15T00:32:43;100425.72;;;0.02;87.96
57668;BME280;43499;52.366;12.912;2023-03-15T00:33:44;100454.44;;;0.26;88.23
57668;BME280;43499;52.366;12.912;2023-03-15T00:34:45;100484.16;;;0.30;88.03
57668;BME280;43499;52.366;12.912;2023-03-15T00:35:48;100507.19;;;0.50;88.27
57668;BME280;43499;52.366;12.912;2023-03-15T00:36:50;100504.25;;;0.40;88.83
57668;BME280;43499;52.366;12.912;2023-03-15T00:37:55;100443.56;;;0.14;88.90
57668;BME280;43499;52.366;12.912;2023-03-15T00:38:56;100513.63;;;0.54;88.50
57668;BME280;43499;52.366;12.912;2023-03-15T00:39:57;100511.03;;;0.54;88.47
57668;BME280;43499;52.366;12.912;2023-03-15T00:41:03;100519.91;;;0.49;88.55
57668;BME280;43499;52.366;12.912;2023-03-15T00:42:05;100525.44;;;0.52;88.67
57668;BME280;43499;52.366;12.912;2023-03-15T00:43:06;100534.69;;;0.50;89.03
57668;BME280;43499;52.366;12.912;2023-03-15T00:44:07;100518.78;;;0.46;88.86
57668;BME280;43499;52.366;12.912;2023-03-15T00:45:08;100453.94;;;0.07;89.31
57668;BME280;43499;52.366;12.912;2023-03-15T00:46:11;100448.59;;;-0.02;89.04
57668;BME280;43499;52.366;12.912;2023-03-15T00:47:13;100518.84;;;0.39;89.44
57668;BME280;43499;52.366;12.912;2023-03-15T00:48:14;100511.81;;;0.38;89.06
57668;BME280;43499;52.366;12.912;2023-03-15T00:49:16;100521.25;;;0.38;89.64
57668;BME280;43499;52.366;12.912;2023-03-15T00:50:18;100466.28;;;0.17;89.05
57668;BME280;43499;52.366;12.912;2023-03-15T00:51:22;100502.41;;;0.39;89.63
57668;BME280;43499;52.366;12.912;2023-03-15T00:52:24;100532.28;;;0.44;89.59
57668;BME280;43499;52.366;12.912;2023-03-15T00:53:25;100528.97;;;0.45;89.25
57668;BME280;43499;52.366;12.912;2023-03-15T00:54:26;100460.19;;;0.02;89.65
57668;BME280;43499;52.366;12.912;2023-03-15T00:55:27;100488.44;;;0.15;89.48
57668;BME280;43499;52.366;12.912;2023-03-15T00:56:29;100536.72;;;0.45;89.54
57668;BME280;43499;52.366;12.912;2023-03-15T00:57:32;100542.84;;;0.45;89.55
57668;BME280;43499;52.366;12.912;2023-03-15T00:58:34;100510.19;;;0.24;90.03
57668;BME280;43499;52.366;12.912;2023-03-15T00:59:35;100503.00;;;0.22;90.13
57668;BME280;43499;52.366;12.912;2023-03-15T01:00:36;100522.19;;;0.31;90.50
57668;BME280;43499;52.366;12.912;2023-03-15T01:01:41;100509.09;;;0.22;90.07
57668;BME280;43499;52.366;12.912;2023-03-15T01:02:44;100481.28;;;-0.02;89.76
57668;BME280;43499;52.366;12.912;2023-03-15T01:03:46;100462.47;;;-0.16;89.96
57668;BME280;43499;52.366;12.912;2023-03-15T01:04:48;100524.44;;;0.21;90.56
57668;BME280;43499;52.366;12.912;2023-03-15T01:05:49;100542.84;;;0.24;90.52
57668;BME280;43499;52.366;12.912;2023-03-15T01:06:50;100544.34;;;0.29;90.51
57668;BME280;43499;52.366;12.912;2023-03-15T01:07:51;100464.31;;;-0.22;90.63
57668;BME280;43499;52.366;12.912;2023-03-15T01:08:52;100556.53;;;0.30;90.66
57668;BME280;43499;52.366;12.912;2023-03-15T01:09:56;100512.25;;;0.05;90.78
57668;BME280;43499;52.366;12.912;2023-03-15T01:11:04;100515.00;;;0.07;91.10
57668;BME280;43499;52.366;12.912;2023-03-15T01:12:06;100471.84;;;-0.16;90.80
57668;BME280;43499;52.366;12.912;2023-03-15T01:13:07;100537.72;;;0.17;90.80
57668;BME280;43499;52.366;12.912;2023-03-15T01:14:09;100488.31;;;-0.16;91.39
57668;BME280;43499;52.366;12.912;2023-03-15T01:15:13;100544.91;;;0.19;91.43
57668;BME280;43499;52.366;12.912;2023-03-15T01:16:14;100500.66;;;-0.13;91.64
57668;BME280;43499;52.366;12.912;2023-03-15T01:17:16;100550.06;;;0.19;91.66
57668;BME280;43499;52.366;12.912;2023-03-15T01:18:17;100521.16;;;0.00;91.02
57668;BME280;43499;52.366;12.912;2023-03-15T01:19:18;100497.50;;;-0.10;91.79
57668;BME280;43499;52.366;12.912;2023-03-15T01:20:20;100561.72;;;0.23;91.69
57668;BME280;43499;52.366;12.912;2023-03-15T01:21:21;100545.84;;;0.12;91.58
57668;BME280;43499;52.366;12.912;2023-03-15T01:22:23;100510.06;;;-0.21;91.57
57668;BME280;43499;52.366;12.912;2023-03-15T01:23:24;100517.44;;;-0.17;91.48
57668;BME280;43499;52.366;12.912;2023-03-15T01:24:25;100502.91;;;-0.30;92.21
57668;BME280;43499;52.366;12.912;2023-03-15T01:25:27;100481.09;;;-0.40;91.81
57668;BME280;43499;52.366;12.912;2023-03-15T01:26:28;100567.81;;;0.09;91.89
57668;BME280;43499;52.366;12.912;2023-03-15T01:27:29;100557.13;;;0.06;91.92
57668;BME280;43499;52.366;12.912;2023-03-15T01:28:30;100575.78;;;0.10;92.07
57668;BME280;43499;52.366;12.912;2023-03-15T01:29:31;100546.06;;;-0.08;92.42
57668;BME280;43499;52.366;12.912;2023-03-15T01:30:32;100553.97;;;-0.06;92.46
57668;BME280;43499;52.366;12.912;2023-03-15T01:31:33;100580.38;;;0.06;92.54
57668;BME280;43499;52.366;12.912;2023-03-15T01:32:34;100548.44;;;-0.09;92.47
57668;BME280;43499;52.366;12.912;2023-03-15T01:33:35;100558.59;;;-0.04;92.26
57668;BME280;43499;52.366;12.912;2023-03-15T01:34:36;100577.44;;;0.03;92.71
57668;BME280;43499;52.366;12.912;2023-03-15T01:35:38;100593.31;;;0.06;92.31
57668;BME280;43499;52.366;12.912;2023-03-15T01:36:39;100537.75;;;-0.20;92.49
57668;BME280;43499;52.366;12.912;2023-03-15T01:37:40;100515.44;;;-0.34;92.39
57668;BME280;43499;52.366;12.912;2023-03-15T01:38:42;100557.31;;;-0.07;92.65
57668;BME280;43499;52.366;12.912;2023-03-15T01:39:44;100564.88;;;-0.09;92.72
57668;BME280;43499;52.366;12.912;2023-03-15T01:40:45;100528.50;;;-0.32;92.97
57668;BME280;43499;52.366;12.912;2023-03-15T01:41:48;100572.81;;;-0.07;92.98
57668;BME280;43499;52.366;12.912;2023-03-15T01:42:51;100550.47;;;-0.28;92.98
57668;BME280;43499;52.366;12.912;2023-03-15T01:43:52;100581.09;;;-0.03;93.61
57668;BME280;43499;52.366;12.912;2023-03-15T01:44:56;100586.09;;;-0.04;93.61
57668;BME280;43499;52.366;12.912;2023-03-15T01:46:21;100589.78;;;-0.09;93.30
57668;BME280;43499;52.366;12.912;2023-03-15T01:47:27;100540.69;;;-0.45;93.33
57668;BME280;43499;52.366;12.912;2023-03-15T01:48:35;100589.78;;;-0.09;93.96
57668;BME280;43499;52.366;12.912;2023-03-15T01:49:38;100558.22;;;-0.36;93.85
57668;BME280;43499;52.366;12.912;2023-03-15T01:50:40;100547.50;;;-0.39;93.54
57668;BME280;43499;52.366;12.912;2023-03-15T01:51:50;100594.78;;;-0.11;93.66
57668;BME280;43499;52.366;12.912;2023-03-15T01:52:53;100585.34;;;-0.18;93.64
57668;BME280;43499;52.366;12.912;2023-03-15T01:55:14;100582.22;;;-0.22;94.23
57668;BME280;43499;52.366;12.912;2023-03-15T01:56:29;100555.81;;;-0.41;93.71
57668;BME280;43499;52.366;12.912;2023-03-15T01:57:39;100511.91;;;-0.63;93.91
57668;BME280;43499;52.366;12.912;2023-03-15T01:58:44;100531.47;;;-0.58;93.88
57668;BME280;43499;52.366;12.912;2023-03-15T01:59:51;100538.09;;;-0.53;94.41
57668;BME280;43499;52.366;12.912;2023-03-15T02:00:55;100551.78;;;-0.47;94.40
57668;BME280;43499;52.366;12.912;2023-03-15T02:01:58;100577.97;;;-0.36;94.35
57668;BME280;43499;52.366;12.912;2023-03-15T02:03:07;100560.78;;;-0.50;94.75
57668;BME280;43499;52.366;12.912;2023-03-15T02:04:16;100588.47;;;-0.35;95.10
57668;BME280;43499;52.366;12.912;2023-03-15T02:05:23;100535.50;;;-0.67;94.67
57668;BME280;43499;52.366;12.912;2023-03-15T02:06:25;100574.28;;;-0.38;94.38
57668;BME280;43499;52.366;12.912;2023-03-15T02:07:29;100573.34;;;-0.39;94.94
57668;BME280;43499;52.366;12.912;2023-03-15T02:08:38;100600.47;;;-0.28;94.85
57668;BME280;43499;52.366;12.912;2023-03-15T02:09:45;100546.75;;;-0.59;94.83
57668;BME280;43499;52.366;12.912;2023-03-15T02:10:52;100586.25;;;-0.39;94.95
57668;BME280;43499;52.366;12.912;2023-03-15T02:11:55;100601.78;;;-0.32;94.87
57668;BME280;43499;52.366;12.912;2023-03-15T02:12:57;100558.03;;;-0.59;95.25
57668;BME280;43499;52.366;12.912;2023-03-15T02:14:01;100584.22;;;-0.41;94.76
57668;BME280;43499;52.366;12.912;2023-03-15T02:15:05;100531.28;;;-0.67;94.53
57668;BME280;43499;52.366;12.912;2023-03-15T02:16:07;100561.88;;;-0.48;95.15
57668;BME280;43499;52.366;12.912;2023-03-15T02:17:28;100560.44;;;-0.46;94.79
57668;BME280;43499;52.366;12.912;2023-03-15T02:18:33;100605.09;;;-0.25;94.67
57668;BME280;43499;52.366;12.912;2023-03-15T02:20:02;100603.44;;;-0.25;94.75
57668;BME280;43499;52.366;12.912;2023-03-15T02:21:24;100546.38;;;-0.63;95.19
57668;BME280;43499;52.366;12.912;2023-03-15T02:22:46;100604.88;;;-0.34;94.90
57668;BME280;43499;52.366;12.912;2023-03-15T02:24:14;100534.94;;;-0.79;95.72
57668;BME280;43499;52.366;12.912;2023-03-15T02:26:43;100612.63;;;-0.41;95.33
57668;BME280;43499;52.366;12.912;2023-03-15T02:27:51;100586.03;;;-0.55;95.76
57668;BME280;43499;52.366;12.912;2023-03-15T02:28:53;100566.84;;;-0.57;96.17
57668;BME280;43499;52.366;12.912;2023-03-15T02:29:55;100615.22;;;-0.34;96.70
57668;BME280;43499;52.366;12.912;2023-03-15T02:30:57;100584.34;;;-0.62;95.65
57668;BME280;43499;52.366;12.912;2023-03-15T02:31:58;100558.34;;;-0.78;95.40
57668;BME280;43499;52.366;12.912;2023-03-15T02:33:01;100602.47;;;-0.47;95.76
57668;BME280;43499;52.366;12.912;2023-03-15T02:34:05;100622.56;;;-0.44;95.60
57668;BME280;43499;52.366;12.912;2023-03-15T02:35:07;100574.38;;;-0.73;95.24
57668;BME280;43499;52.366;12.912;2023-03-15T02:36:22;100628.13;;;-0.34;95.48
57668;BME280;43499;52.366;12.912;2023-03-15T02:37:23;100538.41;;;-0.86;95.58
57668;BME280;43499;52.366;12.912;2023-03-15T02:38:24;100629.41;;;-0.38;95.34
57668;BME280;43499;52.366;12.912;2023-03-15T02:39:25;100619.25;;;-0.43;95.33
57668;BME280;43499;52.366;12.912;2023-03-15T02:40:28;100632.94;;;-0.37;95.51
57668;BME280;43499;52.366;12.912;2023-03-15T02:41:33;100638.44;;;-0.34;95.47
57668;BME280;43499;52.366;12.912;2023-03-15T02:42:36;100593.78;;;-0.62;95.65
57668;BME280;43499;52.366;12.912;2023-03-15T02:43:38;100639.22;;;-0.35;95.08
57668;BME280;43499;52.366;12.912;2023-03-15T02:44:43;100578.06;;;-0.78;95.21
57668;BME280;43499;52.366;12.912;2023-03-15T02:45:47;100576.06;;;-0.73;95.46
57668;BME280;43499;52.366;12.912;2023-03-15T02:46:50;100642.31;;;-0.38;95.40
57668;BME280;43499;52.366;12.912;2023-03-15T02:47:55;100650.06;;;-0.38;95.42
57668;BME280;43499;52.366;12.912;2023-03-15T02:48:56;100636.44;;;-0.37;95.69
57668;BME280;43499;52.366;12.912;2023-03-15T02:49:58;100639.00;;;-0.44;95.34
57668;BME280;43499;52.366;12.912;2023-03-15T02:50:59;100634.56;;;-0.38;95.25
57668;BME280;43499;52.366;12.912;2023-03-15T02:52:02;100607.06;;;-0.59;94.96
57668;BME280;43499;52.366;12.912;2023-03-15T02:53:03;100597.28;;;-0.62;94.83
57668;BME280;43499;52.366;12.912;2023-03-15T02:54:04;100633.28;;;-0.34;95.10
57668;BME280;43499;52.366;12.912;2023-03-15T02:55:06;100602.47;;;-0.54;94.60
57668;BME280;43499;52.366;12.912;2023-03-15T02:56:07;100654.53;;;-0.29;94.65
57668;BME280;43499;52.366;12.912;2023-03-15T02:57:12;100650.84;;;-0.32;94.54
57668;BME280;43499;52.366;12.912;2023-03-15T02:58:14;100601.91;;;-0.59;94.28
57668;BME280;43499;52.366;12.912;2023-03-15T02:59:16;100631.09;;;-0.38;94.77
57668;BME280;43499;52.366;12.912;2023-03-15T03:00:17;100646.59;;;-0.31;94.81
57668;BME280;43499;52.366;12.912;2023-03-15T03:01:18;100655.09;;;-0.25;94.89
57668;BME280;43499;52.366;12.912;2023-03-15T03:02:20;100637.53;;;-0.35;94.49
57668;BME280;43499;52.366;12.912;2023-03-15T03:03:21;100611.84;;;-0.55;94.48
57668;BME280;43499;52.366;12.912;2023-03-15T03:04:22;100612.63;;;-0.49;94.56
57668;BME280;43499;52.366;12.912;2023-03-15T03:05:23;100646.25;;;-0.27;94.10
57668;BME280;43499;52.366;12.912;2023-03-15T03:06:24;100624.97;;;-0.39;94.05
57668;BME280;43499;52.366;12.912;2023-03-15T03:07:25;100651.41;;;-0.20;93.79
57668;BME280;43499;52.366;12.912;2023-03-15T03:08:32;100657.69;;;-0.18;93.96
57668;BME280;43499;52.366;12.912;2023-03-15T03:09:33;100625.72;;;-0.40;94.14
57668;BME280;43499;52.366;12.912;2023-03-15T03:10:35;100642.16;;;-0.32;94.51
57668;BME280;43499;52.366;12.912;2023-03-15T03:11:36;100647.53;;;-0.30;94.46
57668;BME280;43499;52.366;12.912;2023-03-15T03:12:38;100660.63;;;-0.29;94.21
57668;BME280;43499;52.366;12.912;2023-03-15T03:13:40;100622.56;;;-0.52;94.09
57668;BME280;43499;52.366;12.912;2023-03-15T03:14:41;100667.47;;;-0.22;93.78
57668;BME280;43499;52.366;12.912;2023-03-15T03:15:48;100606.84;;;-0.60;94.90
57668;BME280;43499;52.366;12.912;2023-03-15T03:16:50;100642.88;;;-0.40;94.54
57668;BME280;43499;52.366;12.912;2023-03-15T03:17:52;100619.59;;;-0.55;94.61
57668;BME280;43499;52.366;12.912;2023-03-15T03:18:54;100601.69;;;-0.60;94.47
57668;BME280;43499;52.366;12.912;2023-03-15T03:19:56;100620.72;;;-0.60;94.02
57668;BME280;43499;52.366;12.912;2023-03-15T03:21:06;100676.28;;;-0.27;94.48
57668;BME280;43499;52.366;12.912;2023-03-15T03:22:07;100666.88;;;-0.34;94.47
57668;BME280;43499;52.366;12.912;2023-03-15T03:23:08;100684.59;;;-0.30;94.84
57668;BME280;43499;52.366;12.912;2023-03-15T03:24:10;100650.81;;;-0.46;94.91
57668;BME280;43499;52.366;12.912;2023-03-15T03:25:11;100643.22;;;-0.52;95.25
57668;BME280;43499;52.366;12.912;2023-03-15T03:26:16;100618.25;;;-0.73;95.24
57668;BME280;43499;52.366;12.912;2023-03-15T03:27:19;100681.63;;;-0.33;95.34
57668;BME280;43499;52.366;12.912;2023-03-15T03:28:23;100689.59;;;-0.32;95.47
57668;BME280;43499;52.366;12.912;2023-03-15T03:29:25;100671.13;;;-0.35;95.19
57668;BME280;43499;52.366;12.912;2023-03-15T03:30:38;100645.97;;;-0.50;95.01
57668;BME280;43499;52.366;12.912;2023-03-15T03:31:40;100640.81;;;-0.50;94.85
57668;BME280;43499;52.366;12.912;2023-03-15T03:32:42;100628.47;;;-0.60;94.36
57668;BME280;43499;52.366;12.912;2023-03-15T03:33:43;100650.47;;;-0.35;94.90
57668;BME280;43499;52.366;12.912;2023-03-15T03:34:44;100676.50;;;-0.26;94.72
57668;BME280;43499;52.366;12.912;2023-03-15T03:35:48;100622.41;;;-0.53;94.53
57668;BME280;43499;52.366;12.912;2023-03-15T03:36:50;100615.38;;;-0.54;94.15
57668;BME280;43499;52.366;12.912;2023-03-15T03:37:58;100651.91;;;-0.44;94.66
57668;BME280;43499;52.366;12.912;2023-03-15T03:39:06;100656.91;;;-0.38;94.47
57668;BME280;43499;52.366;12.912;2023-03-15T03:40:08;100601.88;;;-0.66;94.57
57668;BME280;43499;52.366;12.912;2023-03-15T03:41:11;100641.94;;;-0.48;94.58
57668;BME280;43499;52.366;12.912;2023-03-15T03:42:13;100655.56;;;-0.49;94.31
57668;BME280;43499;52.366;12.912;2023-03-15T03:43:14;100639.91;;;-0.51;94.67
57668;BME280;43499;52.366;12.912;2023-03-15T03:44:15;100682.94;;;-0.29;94.35
57668;BME280;43499;52.366;12.912;2023-03-15T03:45:18;100673.31;;;-0.38;94.36
57668;BME280;43499;52.366;12.912;2023-03-15T03:46:21;100656.34;;;-0.43;94.61
57668;BME280;43499;52.366;12.912;2023-03-15T03:47:26;100629.34;;;-0.67;94.41
57668;BME280;43499;52.366;12.912;2023-03-15T03:48:27;100704.53;;;-0.22;94.58
57668;BME280;43499;52.366;12.912;2023-03-15T03:49:28;100704.53;;;-0.22;95.06
57668;BME280;43499;52.366;12.912;2023-03-15T03:50:29;100687.50;;;-0.41;94.48
57668;BME280;43499;52.366;12.912;2023-03-15T03:51:31;100650.25;;;-0.51;94.45
57668;BME280;43499;52.366;12.912;2023-03-15T03:52:34;100641.53;;;-0.58;94.35
57668;BME280;43499;52.366;12.912;2023-03-15T03:53:40;100702.28;;;-0.33;94.95
57668;BME280;43499;52.366;12.912;2023-03-15T03:54:41;100697.13;;;-0.33;94.17
57668;BME280;43499;52.366;12.912;2023-03-15T03:55:43;100682.53;;;-0.40;94.68
57668;BME280;43499;52.366;12.912;2023-03-15T03:56:44;100691.22;;;-0.39;94.69
57668;BME280;43499;52.366;12.912;2023-03-15T03:57:45;100721.31;;;-0.25;94.16
57668;BME280;43499;52.366;12.912;2023-03-15T03:58:54;100727.94;;;-0.27;94.73
57668;BME280;43499;52.366;12.912;2023-03-15T04:00:02;100698.22;;;-0.38;94.99
57668;BME280;43499;52.366;12.912;2023-03-15T04:01:05;100640.97;;;-0.70;94.74
57668;BME280;43499;52.366;12.912;2023-03-15T04:02:08;100670.50;;;-0.61;95.06
57668;BME280;43499;52.366;12.912;2023-03-15T04:03:09;100645.34;;;-0.76;95.09
57668;BME280;43499;52.366;12.912;2023-03-15T04:04:13;100666.38;;;-0.73;95.37
57668;BME280;43499;52.366;12.912;2023-03-15T04:05:14;100727.53;;;-0.38;95.23
57668;BME280;43499;52.366;12.912;2023-03-15T04:06:16;100721.81;;;-0.42;95.40
57668;BME280;43499;52.366;12.912;2023-03-15T04:07:19;100733.81;;;-0.43;96.03
57668;BME280;43499;52.366;12.912;2023-03-15T04:08:22;100647.50;;;-0.94;95.27
57668;BME280;43499;52.366;12.912;2023-03-15T04:09:23;100681.13;;;-0.72;95.49
57668;BME280;43499;52.366;12.912;2023-03-15T04:10:25;100737.09;;;-0.51;96.32
57668;BME280;43499;52.366;12.912;2023-03-15T04:11:29;100643.41;;;-0.99;96.30
57668;BME280;43499;52.366;12.912;2023-03-15T04:12:33;100672.59;;;-0.86;95.86
57668;BME280;43499;52.366;12.912;2023-03-15T04:13:34;100662.78;;;-0.96;96.27
57668;BME280;43499;52.366;12.912;2023-03-15T04:14:36;100695.66;;;-0.80;96.66
57668;BME280;43499;52.366;12.912;2023-03-15T04:15:40;100693.41;;;-0.84;96.32
57668;BME280;43499;52.366;12.912;2023-03-15T04:16:43;100694.00;;;-0.80;96.70
57668;BME280;43499;52.366;12.912;2023-03-15T04:17:47;100670.47;;;-1.03;96.75
57668;BME280;43499;52.366;12.912;2023-03-15T04:18:49;100664.03;;;-0.99;96.83
57668;BME280;43499;52.366;12.912;2023-03-15T04:19:50;100637.59;;;-1.18;96.59
57668;BME280;43499;52.366;12.912;2023-03-15T04:20:57;100692.28;;;-0.94;96.54
57668;BME280;43499;52.366;12.912;2023-03-15T04:21:59;100718.91;;;-0.73;97.31
57668;BME280;43499;52.366;12.912;2023-03-15T04:23:26;100694.13;;;-0.93;97.44
57668;BME280;43499;52.366;12.912;2023-03-15T04:24:53;100741.25;;;-0.66;97.39
57668;BME280;43499;52.366;12.912;2023-03-15T04:26:05;100750.69;;;-0.67;97.06
57668;BME280;43499;52.366;12.912;2023-03-15T04:27:35;100759.88;;;-0.69;97.34
57668;BME280;43499;52.366;12.912;2023-03-15T04:28:48;100715.50;;;-0.94;97.37
57668;BME280;43499;52.366;12.912;2023-03-15T04:30:06;100756.38;;;-0.69;97.18
57668;BME280;43499;52.366;12.912;2023-03-15T04:31:21;100752.69;;;-0.71;97.43
57668;BME280;43499;52.366;12.912;2023-03-15T04:32:33;100734.53;;;-0.86;97.68
57668;BME280;43499;52.366;12.912;2023-03-15T04:33:46;100701.25;;;-1.04;97.67
57668;BME280;43499;52.366;12.912;2023-03-15T04:35:06;100755.19;;;-0.79;97.95
57668;BME280;43499;52.366;12.912;2023-03-15T04:36:15;100742.81;;;-0.88;97.98
57668;BME280;43499;52.366;12.912;2023-03-15T04:37:39;100725.25;;;-0.98;98.04
57668;BME280;43499;52.366;12.912;2023-03-15T04:39:00;100742.56;;;-0.97;98.24
57668;BME280;43499;52.366;12.912;2023-03-15T04:40:22;100711.47;;;-1.19;97.98
57668;BME280;43499;52.366;12.912;2023-03-15T04:41:31;100779.31;;;-0.85;98.31
57668;BME280;43499;52.366;12.912;2023-03-15T04:42:42;100736.59;;;-1.11;98.17
57668;BME280;43499;52.366;12.912;2023-03-15T04:44:02;100773.06;;;-0.87;98.16
57668;BME280;43499;52.366;12.912;2023-03-15T04:45:29;100689.25;;;-1.38;98.67
57668;BME280;43499;52.366;12.912;2023-03-15T04:46:56;100711.38;;;-1.33;97.82
57668;BME280;43499;52.366;12.912;2023-03-15T04:48:12;100751.19;;;-1.04;98.25
57668;BME280;43499;52.366;12.912;2023-03-15T04:49:26;100767.09;;;-0.94;97.98
57668;BME280;43499;52.366;12.912;2023-03-15T04:50:43;100768.78;;;-0.94;97.97
57668;BME280;43499;52.366;12.912;2023-03-15T04:52:03;100756.31;;;-1.11;98.07
57668;BME280;43499;52.366;12.912;2023-03-15T04:53:24;100772.06;;;-0.95;98.14
57668;BME280;43499;52.366;12.912;2023-03-15T04:54:44;100747.63;;;-1.12;97.66
57668;BME280;43499;52.366;12.912;2023-03-15T04:56:08;100742.28;;;-1.13;97.86
57668;BME280;43499;52.366;12.912;2023-03-15T04:57:12;100736.16;;;-1.21;98.35
57668;BME280;43499;52.366;12.912;2023-03-15T04:58:23;100796.28;;;-0.87;98.33
57668;BME280;43499;52.366;12.912;2023-03-15T04:59:47;100796.06;;;-0.89;97.80
57668;BME280;43499;52.366;12.912;2023-03-15T05:01:09;100736.84;;;-1.29;97.93
57668;BME280;43499;52.366;12.912;2023-03-15T05:02:22;100778.97;;;-1.09;98.34
57668;BME280;43499;52.366;12.912;2023-03-15T05:03:37;100752.75;;;-1.19;98.17
57668;BME280;43499;52.366;12.912;2023-03-15T05:04:50;100743.34;;;-1.18;97.58
57668;BME280;43499;52.366;12.912;2023-03-15T05:06:06;100726.16;;;-1.25;97.77
57668;BME280;43499;52.366;12.912;2023-03-15T05:07:21;100808.31;;;-0.81;97.84
57668;BME280;43499;52.366;12.912;2023-03-15T05:08:55;100769.00;;;-1.13;97.68
57668;BME280;43499;52.366;12.912;2023-03-15T05:10:11;100797.38;;;-0.85;97.58
57668;BME280;43499;52.366;12.912;2023-03-15T05:11:31;100785.16;;;-0.94;97.70
57668;BME280;43499;52.366;12.912;2023-03-15T05:12:53;100757.81;;;-1.06;97.00
57668;BME280;43499;52.366;12.912;2023-03-15T05:14:08;100813.19;;;-0.69;97.02
57668;BME280;43499;52.366;12.912;2023-03-15T05:15:30;100820.00;;;-0.63;96.57
57668;BME280;43499;52.366;12.912;2023-03-15T05:16:54;100775.41;;;-0.89;96.35
57668;BME280;43499;52.366;12.912;2023-03-15T05:18:18;100813.25;;;-0.55;95.75
57668;BME280;43499;52.366;12.912;2023-03-15T05:19:38;100798.44;;;-0.63;95.96
57668;BME280;43499;52.366;12.912;2023-03-15T05:20:55;100825.66;;;-0.45;95.80
57668;BME280;43499;52.366;12.912;2023-03-15T05:22:06;100811.59;;;-0.54;95.70
57668;BME280;43499;52.366;12.912;2023-03-15T05:23:25;100829.72;;;-0.40;95.42
57668;BME280;43499;52.366;12.912;2023-03-15T05:24:43;100782.41;;;-0.60;94.65
57668;BME280;43499;52.366;12.912;2023-03-15T05:25:54;100819.41;;;-0.40;95.25
57668;BME280;43499;52.366;12.912;2023-03-15T05:27:20;100779.81;;;-0.60;94.49
57668;BME280;43499;52.366;12.912;2023-03-15T05:28:30;100834.09;;;-0.19;94.63
57668;BME280;43499;52.366;12.912;2023-03-15T05:29:57;100767.50;;;-0.56;94.02
57668;BME280;43499;52.366;12.912;2023-03-15T05:31:13;100803.63;;;-0.21;94.64
57668;BME280;43499;52.366;12.912;2023-03-15T05:32:43;100777.75;;;-0.36;93.43
57668;BME280;43499;52.366;12.912;2023-03-15T05:33:47;100780.72;;;-0.33;93.95
57668;BME280;43499;52.366;12.912;2023-03-15T05:35:06;100801.59;;;-0.24;93.37
57668;BME280;43499;52.366;12.912;2023-03-15T05:36:25;100806.06;;;-0.16;93.39
57668;BME280;43499;52.366;12.912;2023-03-15T05:37:36;100819.56;;;-0.11;93.03
57668;BME280;43499;52.366;12.912;2023-03-15T05:38:58;100838.63;;;0.04;93.26
57668;BME280;43499;52.366;12.912;2023-03-15T05:40:12;100819.22;;;-0.07;93.55
57668;BME280;43499;52.366;12.912;2023-03-15T05:41:37;100777.41;;;-0.32;93.71
57668;BME280;43499;52.366;12.912;2023-03-15T05:42:57;100847.50;;;0.13;93.28
57668;BME280;43499;52.366;12.912;2023-03-15T05:44:10;100842.16;;;0.12;92.49
57668;BME280;43499;52.366;12.912;2023-03-15T05:45:30;100790.56;;;-0.16;93.03
57668;BME280;43499;52.366;12.912;2023-03-15T05:46:59;100864.19;;;0.23;92.97